sensor_id;sensor_type;location;lat;lon;timestamp;pressure;altitude;pressure_sealevel;temperature;humidity
1926;BME280;964;42.606;23.588;2022-09-27T00:01:33;93626.34;;;27.71;42.85
1926;BME280;964;42.606;23.588;2022-09-27T00:04:01;93633.03;;;27.76;42.74
1926;BME280;964;42.606;23.588;2022-09-27T00:06:29;93629.94;;;27.89;42.88
1926;BME280;964;42.606;23.588;2022-09-27T00:08:57;93622.47;;;27.32;43.88
1926;BME280;964;42.606;23.588;2022-09-27T00:11:26;93617.75;;;28.10;42.50
1926;BME280;964;42.606;23.588;2022-09-27T00:13:54;93620.06;;;27.40;43.77
1926;BME280;964;42.606;23.588;2022-09-27T00:16:22;93618.50;;;28.47;41.90
1926;BME280;964;42.606;23.588;2022-09-27T00:18:49;93608.69;;;29.14;40.48
1926;BME280;964;42.606;23.588;2022-09-27T00:21:17;93605.66;;;28.53;41.01
1926;BME280;964;42.606;23.588;2022-09-27T00:23:44;93608.88;;;28.52;40.73
1926;BME280;964;42.606;23.588;2022-09-27T00:26:12;93604.75;;;28.67;40.25
1926;BME280;964;42.606;23.588;2022-09-27T00:28:39;93608.75;;;28.35;40.67
1926;BME280;964;42.606;23.588;2022-09-27T00:31:13;93604.75;;;28.67;40.03
1926;BME280;964;42.606;23.588;2022-09-27T00:33:44;93612.06;;;28.87;40.50
1926;BME280;964;42.606;23.588;2022-09-27T00:36:11;93614.72;;;28.76;40.16
1926;BME280;964;42.606;23.588;2022-09-27T00:38:41;93630.97;;;30.00;38.05
1926;BME280;964;42.606;23.588;2022-09-27T00:41:09;93617.59;;;29.91;37.92
1926;BME280;964;42.606;23.588;2022-09-27T00:43:44;93625.31;;;28.63;40.47
1926;BME280;964;42.606;23.588;2022-09-27T00:46:13;93630.91;;;28.11;41.33
1926;BME280;964;42.606;23.588;2022-09-27T00:48:42;93627.84;;;28.35;41.50
1926;BME280;964;42.606;23.588;2022-09-27T00:51:09;93637.22;;;28.65;41.19
1926;BME280;964;42.606;23.588;2022-09-27T00:53:40;93622.75;;;29.72;39.71
1926;BME280;964;42.606;23.588;2022-09-27T00:56:15;93616.03;;;29.79;39.46
1926;BME280;964;42.606;23.588;2022-09-27T00:58:46;93618.03;;;29.84;40.00
1926;BME280;964;42.606;23.588;2022-09-27T01:01:15;93623.97;;;29.54;40.08
1926;BME280;964;42.606;23.588;2022-09-27T01:03:45;93622.94;;;29.52;40.00
1926;BME280;964;42.606;23.588;2022-09-27T01:06:15;93648.25;;;29.41;40.60
1926;BME280;964;42.606;23.588;2022-09-27T01:08:46;93641.78;;;29.44;40.32
1926;BME280;964;42.606;23.588;2022-09-27T01:11:21;93644.63;;;28.28;42.28
1926;BME280;964;42.606;23.588;2022-09-27T01:14:00;93624.16;;;29.34;40.69
1926;BME280;964;42.606;23.588;2022-09-27T01:16:39;93631.78;;;27.71;42.80
1926;BME280;964;42.606;23.588;2022-09-27T01:19:15;93619.28;;;27.59;44.02
1926;BME280;964;42.606;23.588;2022-09-27T01:21:51;93623.22;;;27.58;43.72
1926;BME280;964;42.606;23.588;2022-09-27T01:30:17;93605.44;;;27.57;43.56
1926;BME280;964;42.606;23.588;2022-09-27T01:32:51;93603.31;;;27.01;45.49
1926;BME280;964;42.606;23.588;2022-09-27T01:35:25;93606.47;;;27.65;44.27
1926;BME280;964;42.606;23.588;2022-09-27T01:38:02;93611.94;;;28.28;42.74
1926;BME280;964;42.606;23.588;2022-09-27T01:40:40;93616.25;;;28.40;42.44
1926;BME280;964;42.606;23.588;2022-09-27T01:43:13;93599.63;;;28.38;42.38
1926;BME280;964;42.606;23.588;2022-09-27T01:45:47;93607.63;;;27.85;43.54
1926;BME280;964;42.606;23.588;2022-09-27T01:48:19;93600.91;;;27.80;44.12
1926;BME280;964;42.606;23.588;2022-09-27T01:50:49;93600.81;;;27.69;44.63
1926;BME280;964;42.606;23.588;2022-09-27T01:53:19;93590.97;;;28.40;43.40
1926;BME280;964;42.606;23.588;2022-09-27T01:55:49;93588.06;;;28.12;43.76
1926;BME280;964;42.606;23.588;2022-09-27T01:58:21;93590.31;;;27.56;44.56
1926;BME280;964;42.606;23.588;2022-09-27T02:00:51;93581.28;;;27.70;44.37
1926;BME280;964;42.606;23.588;2022-09-27T02:03:20;93582.09;;;26.64;46.17
1926;BME280;964;42.606;23.588;2022-09-27T02:05:51;93579.63;;;27.07;44.76
1926;BME280;964;42.606;23.588;2022-09-27T02:08:24;93572.41;;;26.98;44.96
1926;BME280;964;42.606;23.588;2022-09-27T02:10:53;93568.31;;;27.60;43.56
1926;BME280;964;42.606;23.588;2022-09-27T02:13:24;93577.88;;;27.75;43.63
1926;BME280;964;42.606;23.588;2022-09-27T02:16:01;93582.81;;;28.88;41.41
1926;BME280;964;42.606;23.588;2022-09-27T02:18:33;93581.50;;;29.42;40.79
1926;BME280;964;42.606;23.588;2022-09-27T02:21:04;93578.78;;;29.53;40.22
1926;BME280;964;42.606;23.588;2022-09-27T02:23:37;93582.72;;;29.41;40.46
1926;BME280;964;42.606;23.588;2022-09-27T02:26:11;93579.38;;;28.50;41.45
1926;BME280;964;42.606;23.588;2022-09-27T02:28:42;93581.88;;;27.54;43.31
1926;BME280;964;42.606;23.588;2022-09-27T02:31:12;93571.16;;;27.45;43.83
1926;BME280;964;42.606;23.588;2022-09-27T02:33:41;93566.47;;;28.45;42.05
1926;BME280;964;42.606;23.588;2022-09-27T02:36:10;93571.00;;;27.86;42.59
1926;BME280;964;42.606;23.588;2022-09-27T02:38:37;93567.84;;;26.90;44.74
1926;BME280;964;42.606;23.588;2022-09-27T02:41:12;93539.81;;;26.63;44.34
1926;BME280;964;42.606;23.588;2022-09-27T02:43:39;93535.50;;;25.81;45.62
1926;BME280;964;42.606;23.588;2022-09-27T02:46:21;93524.16;;;27.76;42.01
1926;BME280;964;42.606;23.588;2022-09-27T02:48:56;93533.19;;;27.93;42.10
1926;BME280;964;42.606;23.588;2022-09-27T02:51:37;93528.50;;;27.62;42.78
1926;BME280;964;42.606;23.588;2022-09-27T02:54:15;93527.59;;;27.71;42.31
1926;BME280;964;42.606;23.588;2022-09-27T02:56:52;93521.06;;;27.06;43.92
1926;BME280;964;42.606;23.588;2022-09-27T02:59:29;93509.59;;;27.85;42.37
1926;BME280;964;42.606;23.588;2022-09-27T03:02:05;93503.25;;;27.36;43.67
1926;BME280;964;42.606;23.588;2022-09-27T03:04:35;93496.56;;;27.57;43.38
1926;BME280;964;42.606;23.588;2022-09-27T03:07:05;93509.69;;;27.33;43.46
1926;BME280;964;42.606;23.588;2022-09-27T03:09:41;93527.94;;;27.27;43.38
1926;BME280;964;42.606;23.588;2022-09-27T03:12:09;93518.06;;;27.04;43.75
1926;BME280;964;42.606;23.588;2022-09-27T03:14:35;93526.31;;;27.15;43.46
1926;BME280;964;42.606;23.588;2022-09-27T03:17:04;93524.97;;;26.59;44.77
1926;BME280;964;42.606;23.588;2022-09-27T03:19:31;93500.72;;;27.27;43.29
1926;BME280;964;42.606;23.588;2022-09-27T03:21:58;93484.13;;;26.73;44.94
1926;BME280;964;42.606;23.588;2022-09-27T03:24:24;93500.03;;;26.20;45.97
1926;BME280;964;42.606;23.588;2022-09-27T03:26:51;93477.00;;;27.27;43.93
1926;BME280;964;42.606;23.588;2022-09-27T03:29:17;93486.41;;;28.43;41.54
1926;BME280;964;42.606;23.588;2022-09-27T03:31:44;93470.91;;;28.65;41.40
1926;BME280;964;42.606;23.588;2022-09-27T03:34:12;93480.41;;;27.22;43.69
1926;BME280;964;42.606;23.588;2022-09-27T03:36:39;93479.06;;;26.20;46.33
1926;BME280;964;42.606;23.588;2022-09-27T03:39:06;93467.94;;;26.64;45.39
1926;BME280;964;42.606;23.588;2022-09-27T03:41:33;93480.44;;;25.96;47.00
1926;BME280;964;42.606;23.588;2022-09-27T03:44:00;93453.69;;;26.69;45.67
1926;BME280;964;42.606;23.588;2022-09-27T03:46:27;93457.19;;;26.75;44.92
1926;BME280;964;42.606;23.588;2022-09-27T03:48:53;93468.28;;;25.91;46.68
1926;BME280;964;42.606;23.588;2022-09-27T03:51:22;93473.88;;;26.83;44.97
1926;BME280;964;42.606;23.588;2022-09-27T03:53:49;93461.50;;;27.70;42.78
1926;BME280;964;42.606;23.588;2022-09-27T03:56:15;93451.84;;;27.69;42.78
1926;BME280;964;42.606;23.588;2022-09-27T03:58:43;93459.66;;;27.25;43.73
1926;BME280;964;42.606;23.588;2022-09-27T04:01:09;93452.34;;;27.73;43.02
1926;BME280;964;42.606;23.588;2022-09-27T04:03:36;93459.41;;;28.39;41.59
1926;BME280;964;42.606;23.588;2022-09-27T04:06:03;93460.81;;;28.23;42.17
1926;BME280;964;42.606;23.588;2022-09-27T04:08:32;93458.53;;;27.68;43.29
1926;BME280;964;42.606;23.588;2022-09-27T04:10:58;93467.63;;;27.03;44.27
1926;BME280;964;42.606;23.588;2022-09-27T04:13:25;93460.38;;;27.51;43.44
1926;BME280;964;42.606;23.588;2022-09-27T04:15:52;93444.09;;;27.99;42.58
1926;BME280;964;42.606;23.588;2022-09-27T04:18:18;93448.28;;;27.95;42.72
1926;BME280;964;42.606;23.588;2022-09-27T04:20:45;93452.44;;;28.38;41.63
1926;BME280;964;42.606;23.588;2022-09-27T04:23:12;93451.50;;;28.41;41.25
1926;BME280;964;42.606;23.588;2022-09-27T04:25:40;93443.69;;;28.82;40.91
1926;BME280;964;42.606;23.588;2022-09-27T04:28:07;93440.47;;;28.84;40.74
1926;BME280;964;42.606;23.588;2022-09-27T04:30:33;93429.75;;;28.63;41.43
1926;BME280;964;42.606;23.588;2022-09-27T04:33:00;93436.81;;;29.53;39.78
1926;BME280;964;42.606;23.588;2022-09-27T04:47:26;93402.72;;;31.03;37.74
1926;BME280;964;42.606;23.588;2022-09-27T04:49:53;93421.97;;;30.45;38.54
1926;BME280;964;42.606;23.588;2022-09-27T04:52:19;93429.47;;;30.80;37.97
1926;BME280;964;42.606;23.588;2022-09-27T04:54:46;93427.28;;;31.74;36.62
1926;BME280;964;42.606;23.588;2022-09-27T04:57:13;93436.69;;;30.20;38.77
1926;BME280;964;42.606;23.588;2022-09-27T04:59:39;93445.16;;;30.11;39.45
1926;BME280;964;42.606;23.588;2022-09-27T05:02:07;93450.69;;;29.00;41.63
1926;BME280;964;42.606;23.588;2022-09-27T05:04:35;93456.13;;;29.78;40.51
1926;BME280;964;42.606;23.588;2022-09-27T05:07:01;93456.66;;;29.48;40.99
1926;BME280;964;42.606;23.588;2022-09-27T05:09:29;93449.38;;;30.12;39.94
1926;BME280;964;42.606;23.588;2022-09-27T05:11:56;93457.13;;;29.75;40.42
1926;BME280;964;42.606;23.588;2022-09-27T05:14:22;93444.28;;;30.49;39.36
1926;BME280;964;42.606;23.588;2022-09-27T05:16:49;93440.84;;;30.38;39.55
1926;BME280;964;42.606;23.588;2022-09-27T05:19:17;93434.03;;;30.67;39.38
1926;BME280;964;42.606;23.588;2022-09-27T05:21:45;93431.03;;;30.64;39.40
1926;BME280;964;42.606;23.588;2022-09-27T05:24:11;93436.16;;;30.85;39.21
1926;BME280;964;42.606;23.588;2022-09-27T05:26:38;93424.38;;;31.01;39.02
1926;BME280;964;42.606;23.588;2022-09-27T05:29:06;93433.03;;;31.70;38.34
1926;BME280;964;42.606;23.588;2022-09-27T05:31:32;93437.44;;;32.03;36.92
1926;BME280;964;42.606;23.588;2022-09-27T05:33:59;93433.34;;;32.58;36.20
1926;BME280;964;42.606;23.588;2022-09-27T05:36:26;93437.50;;;33.02;36.02
1926;BME280;964;42.606;23.588;2022-09-27T05:38:54;93431.38;;;32.77;36.17
1926;BME280;964;42.606;23.588;2022-09-27T05:41:21;93431.63;;;31.88;37.41
1926;BME280;964;42.606;23.588;2022-09-27T05:43:48;93436.78;;;31.73;37.65
1926;BME280;964;42.606;23.588;2022-09-27T05:46:14;93437.50;;;31.08;39.20
1926;BME280;964;42.606;23.588;2022-09-27T05:48:41;93449.19;;;31.14;38.95
1926;BME280;964;42.606;23.588;2022-09-27T05:51:08;93461.31;;;30.78;39.30
1926;BME280;964;42.606;23.588;2022-09-27T05:53:35;93447.28;;;30.98;39.53
1926;BME280;964;42.606;23.588;2022-09-27T05:56:03;93441.69;;;32.28;36.60
1926;BME280;964;42.606;23.588;2022-09-27T05:58:30;93446.03;;;32.61;36.25
1926;BME280;964;42.606;23.588;2022-09-27T06:00:56;93449.06;;;33.64;34.83
1926;BME280;964;42.606;23.588;2022-09-27T06:03:23;93452.41;;;33.25;34.86
1926;BME280;964;42.606;23.588;2022-09-27T06:05:50;93437.91;;;33.43;34.97
1926;BME280;964;42.606;23.588;2022-09-27T06:08:17;93438.53;;;33.49;34.79
1926;BME280;964;42.606;23.588;2022-09-27T06:10:45;93453.09;;;32.94;35.71
1926;BME280;964;42.606;23.588;2022-09-27T06:13:14;93455.50;;;31.93;37.16
1926;BME280;964;42.606;23.588;2022-09-27T06:15:43;93460.81;;;31.55;38.58
1926;BME280;964;42.606;23.588;2022-09-27T06:18:12;93455.63;;;31.17;38.93
1926;BME280;964;42.606;23.588;2022-09-27T06:20:40;93436.56;;;31.35;38.59
1926;BME280;964;42.606;23.588;2022-09-27T06:23:10;93433.97;;;31.48;38.64
1926;BME280;964;42.606;23.588;2022-09-27T06:25:37;93435.72;;;32.48;36.55
1926;BME280;964;42.606;23.588;2022-09-27T06:28:05;93429.91;;;33.59;35.08
1926;BME280;964;42.606;23.588;2022-09-27T06:30:33;93436.16;;;33.27;35.51
1926;BME280;964;42.606;23.588;2022-09-27T06:33:03;93436.06;;;33.33;35.21
1926;BME280;964;42.606;23.588;2022-09-27T06:35:30;93424.03;;;33.36;35.20
1926;BME280;964;42.606;23.588;2022-09-27T06:37:57;93423.31;;;32.23;37.11
1926;BME280;964;42.606;23.588;2022-09-27T06:40:24;93432.69;;;31.25;38.99
1926;BME280;964;42.606;23.588;2022-09-27T06:42:51;93439.38;;;31.24;38.46
1926;BME280;964;42.606;23.588;2022-09-27T06:45:19;93436.81;;;32.58;36.49
1926;BME280;964;42.606;23.588;2022-09-27T06:47:47;93426.63;;;32.78;36.81
1926;BME280;964;42.606;23.588;2022-09-27T06:50:13;93431.06;;;33.18;35.83
1926;BME280;964;42.606;23.588;2022-09-27T06:52:46;93433.13;;;33.63;36.04
1926;BME280;964;42.606;23.588;2022-09-27T06:55:14;93432.63;;;33.14;36.41
1926;BME280;964;42.606;23.588;2022-09-27T06:57:41;93444.47;;;33.53;36.54
1926;BME280;964;42.606;23.588;2022-09-27T07:00:25;93443.41;;;33.57;36.19
1926;BME280;964;42.606;23.588;2022-09-27T07:02:55;93449.22;;;32.22;37.88
1926;BME280;964;42.606;23.588;2022-09-27T07:05:25;93455.88;;;32.08;38.82
1926;BME280;964;42.606;23.588;2022-09-27T07:07:52;93458.59;;;31.84;38.76
1926;BME280;964;42.606;23.588;2022-09-27T07:10:23;93462.19;;;31.97;38.36
1926;BME280;964;42.606;23.588;2022-09-27T07:12:50;93455.00;;;30.99;39.88
1926;BME280;964;42.606;23.588;2022-09-27T07:15:17;93444.59;;;32.54;37.92
1926;BME280;964;42.606;23.588;2022-09-27T07:17:45;93437.91;;;33.12;36.70
1926;BME280;964;42.606;23.588;2022-09-27T07:20:13;93444.44;;;32.71;37.29
1926;BME280;964;42.606;23.588;2022-09-27T07:22:40;93442.19;;;33.26;36.26
1926;BME280;964;42.606;23.588;2022-09-27T07:25:08;93452.03;;;33.34;36.72
1926;BME280;964;42.606;23.588;2022-09-27T07:27:35;93454.41;;;31.77;38.61
1926;BME280;964;42.606;23.588;2022-09-27T07:30:02;93439.19;;;32.30;38.22
1926;BME280;964;42.606;23.588;2022-09-27T07:32:34;93436.91;;;32.10;38.67
1926;BME280;964;42.606;23.588;2022-09-27T07:35:01;93440.53;;;31.94;38.45
1926;BME280;964;42.606;23.588;2022-09-27T07:37:32;93427.22;;;33.72;36.11
1926;BME280;964;42.606;23.588;2022-09-27T07:39:58;93425.09;;;33.78;35.91
1926;BME280;964;42.606;23.588;2022-09-27T07:42:25;93425.88;;;33.60;36.23
1926;BME280;964;42.606;23.588;2022-09-27T07:44:53;93439.66;;;32.72;37.57
1926;BME280;964;42.606;23.588;2022-09-27T07:47:20;93465.22;;;31.94;39.04
1926;BME280;964;42.606;23.588;2022-09-27T07:49:48;93469.94;;;31.69;39.96
1926;BME280;964;42.606;23.588;2022-09-27T07:52:15;93453.59;;;32.12;39.21
1926;BME280;964;42.606;23.588;2022-09-27T07:54:43;93460.88;;;32.04;38.89
1926;BME280;964;42.606;23.588;2022-09-27T07:57:09;93446.84;;;32.13;38.61
1926;BME280;964;42.606;23.588;2022-09-27T07:59:36;93424.22;;;32.07;38.09
1926;BME280;964;42.606;23.588;2022-09-27T08:02:03;93432.38;;;31.88;38.52
1926;BME280;964;42.606;23.588;2022-09-27T08:04:30;93433.19;;;32.50;37.71
1926;BME280;964;42.606;23.588;2022-09-27T08:06:57;93425.66;;;32.56;36.74
1926;BME280;964;42.606;23.588;2022-09-27T08:09:23;93434.50;;;32.01;37.98
1926;BME280;964;42.606;23.588;2022-09-27T08:11:55;93436.59;;;33.63;35.61
1926;BME280;964;42.606;23.588;2022-09-27T08:14:22;93434.59;;;33.32;36.14
1926;BME280;964;42.606;23.588;2022-09-27T08:16:49;93427.88;;;34.43;34.89
1926;BME280;964;42.606;23.588;2022-09-27T08:19:16;93432.75;;;33.53;36.16
1926;BME280;964;42.606;23.588;2022-09-27T08:21:43;93425.84;;;33.33;36.29
1926;BME280;964;42.606;23.588;2022-09-27T08:24:10;93417.63;;;33.46;35.72
1926;BME280;964;42.606;23.588;2022-09-27T08:26:37;93425.66;;;32.56;38.00
1926;BME280;964;42.606;23.588;2022-09-27T08:29:05;93405.44;;;34.39;36.33
1926;BME280;964;42.606;23.588;2022-09-27T08:31:32;93408.59;;;33.78;36.00
1926;BME280;964;42.606;23.588;2022-09-27T08:33:59;93410.13;;;34.31;35.34
1926;BME280;964;42.606;23.588;2022-09-27T08:36:26;93405.66;;;34.68;34.90
1926;BME280;964;42.606;23.588;2022-09-27T08:38:53;93405.69;;;34.02;35.46
1926;BME280;964;42.606;23.588;2022-09-27T08:41:32;93377.03;;;34.58;35.16
1926;BME280;964;42.606;23.588;2022-09-27T08:44:08;93373.69;;;34.52;35.26
1926;BME280;964;42.606;23.588;2022-09-27T08:46:43;93375.25;;;36.33;33.78
1926;BME280;964;42.606;23.588;2022-09-27T08:49:18;93389.63;;;35.55;33.44
1926;BME280;964;42.606;23.588;2022-09-27T08:51:49;93377.38;;;36.12;33.01
1926;BME280;964;42.606;23.588;2022-09-27T08:54:21;93388.66;;;36.01;33.68
1926;BME280;964;42.606;23.588;2022-09-27T08:56:48;93388.16;;;35.33;34.04
1926;BME280;964;42.606;23.588;2022-09-27T08:59:19;93390.81;;;34.71;35.65
1926;BME280;964;42.606;23.588;2022-09-27T09:01:49;93381.97;;;34.38;37.02
1926;BME280;964;42.606;23.588;2022-09-27T09:04:22;93377.72;;;34.64;35.79
1926;BME280;964;42.606;23.588;2022-09-27T09:06:57;93370.28;;;34.72;35.86
1926;BME280;964;42.606;23.588;2022-09-27T09:09:32;93358.88;;;35.09;35.40
1926;BME280;964;42.606;23.588;2022-09-27T09:12:12;93358.03;;;34.46;36.46
1926;BME280;964;42.606;23.588;2022-09-27T09:15:19;93360.06;;;34.80;36.55
1926;BME280;964;42.606;23.588;2022-09-27T09:18:13;93353.81;;;36.55;34.32
1926;BME280;964;42.606;23.588;2022-09-27T09:20:54;93336.44;;;38.11;31.70
1926;BME280;964;42.606;23.588;2022-09-27T09:23:36;93346.34;;;38.77;31.08
1926;BME280;964;42.606;23.588;2022-09-27T09:26:14;93346.03;;;39.05;30.64
1926;BME280;964;42.606;23.588;2022-09-27T09:28:55;93342.19;;;39.26;30.44
1926;BME280;964;42.606;23.588;2022-09-27T09:31:33;93336.59;;;38.76;30.59
1926;BME280;964;42.606;23.588;2022-09-27T09:34:08;93350.44;;;38.76;30.57
1926;BME280;964;42.606;23.588;2022-09-27T09:36:40;93333.88;;;37.91;31.22
1926;BME280;964;42.606;23.588;2022-09-27T09:39:12;93317.53;;;40.92;29.18
1926;BME280;964;42.606;23.588;2022-09-27T09:41:53;93318.94;;;41.92;27.60
1926;BME280;964;42.606;23.588;2022-09-27T09:44:26;93308.53;;;42.02;28.04
1926;BME280;964;42.606;23.588;2022-09-27T09:46:58;93316.91;;;42.41;26.29
1926;BME280;964;42.606;23.588;2022-09-27T09:49:29;93313.31;;;43.38;26.08
1926;BME280;964;42.606;23.588;2022-09-27T09:51:59;93314.84;;;42.70;26.83
1926;BME280;964;42.606;23.588;2022-09-27T09:54:31;93310.78;;;41.58;27.54
1926;BME280;964;42.606;23.588;2022-09-27T09:57:04;93323.94;;;40.58;29.35
1926;BME280;964;42.606;23.588;2022-09-27T09:59:36;93308.84;;;39.58;29.67
1926;BME280;964;42.606;23.588;2022-09-27T10:02:17;93299.09;;;40.60;28.98
1926;BME280;964;42.606;23.588;2022-09-27T10:04:47;93300.06;;;40.38;29.17
1926;BME280;964;42.606;23.588;2022-09-27T10:07:15;93301.50;;;41.00;28.54
1926;BME280;964;42.606;23.588;2022-09-27T10:09:44;93308.03;;;39.65;29.50
1926;BME280;964;42.606;23.588;2022-09-27T10:12:11;93315.22;;;39.01;29.93
1926;BME280;964;42.606;23.588;2022-09-27T10:14:38;93307.41;;;38.75;29.83
1926;BME280;964;42.606;23.588;2022-09-27T10:17:13;93310.28;;;37.90;31.58
1926;BME280;964;42.606;23.588;2022-09-27T10:19:41;93310.19;;;38.27;31.54
1926;BME280;964;42.606;23.588;2022-09-27T10:22:15;93306.84;;;37.44;31.89
1926;BME280;964;42.606;23.588;2022-09-27T10:24:53;93305.88;;;37.79;31.91
1926;BME280;964;42.606;23.588;2022-09-27T10:27:20;93301.13;;;37.11;32.75
1926;BME280;964;42.606;23.588;2022-09-27T10:29:55;93284.94;;;37.30;32.59
1926;BME280;964;42.606;23.588;2022-09-27T10:32:27;93297.44;;;37.01;32.26
1926;BME280;964;42.606;23.588;2022-09-27T10:35:18;93288.31;;;38.54;30.49
1926;BME280;964;42.606;23.588;2022-09-27T10:37:46;93278.06;;;39.88;29.00
1926;BME280;964;42.606;23.588;2022-09-27T10:40:25;93272.88;;;40.80;28.37
1926;BME280;964;42.606;23.588;2022-09-27T10:42:53;93263.34;;;40.12;28.36
1926;BME280;964;42.606;23.588;2022-09-27T10:45:26;93262.75;;;39.45;29.63
1926;BME280;964;42.606;23.588;2022-09-27T10:47:55;93271.25;;;39.64;29.10
1926;BME280;964;42.606;23.588;2022-09-27T10:50:24;93273.59;;;39.51;29.81
1926;BME280;964;42.606;23.588;2022-09-27T10:53:03;93281.97;;;40.20;28.40
1926;BME280;964;42.606;23.588;2022-09-27T10:55:33;93278.44;;;40.80;27.91
1926;BME280;964;42.606;23.588;2022-09-27T10:58:00;93268.69;;;41.81;27.09
1926;BME280;964;42.606;23.588;2022-09-27T11:00:30;93284.06;;;42.39;26.47
1926;BME280;964;42.606;23.588;2022-09-27T11:03:02;93279.28;;;43.61;24.72
1926;BME280;964;42.606;23.588;2022-09-27T11:05:32;93273.16;;;44.17;23.52
1926;BME280;964;42.606;23.588;2022-09-27T11:08:01;93272.31;;;43.10;24.59
1926;BME280;964;42.606;23.588;2022-09-27T11:10:30;93276.50;;;39.95;29.22
1926;BME280;964;42.606;23.588;2022-09-27T11:13:09;93258.09;;;41.79;27.45
1926;BME280;964;42.606;23.588;2022-09-27T11:15:49;93251.94;;;43.08;25.57
1926;BME280;964;42.606;23.588;2022-09-27T11:18:26;93241.28;;;43.99;25.15
1926;BME280;964;42.606;23.588;2022-09-27T11:21:01;93221.50;;;44.83;24.72
1926;BME280;964;42.606;23.588;2022-09-27T11:23:50;93228.19;;;45.48;23.36
1926;BME280;964;42.606;23.588;2022-09-27T11:26:34;93209.41;;;46.11;22.56
1926;BME280;964;42.606;23.588;2022-09-27T11:29:14;93200.56;;;46.28;22.80
1926;BME280;964;42.606;23.588;2022-09-27T11:31:53;93200.50;;;46.78;21.57
1926;BME280;964;42.606;23.588;2022-09-27T11:34:36;93199.72;;;46.51;22.62
1926;BME280;964;42.606;23.588;2022-09-27T11:37:14;93208.75;;;47.97;20.78
1926;BME280;964;42.606;23.588;2022-09-27T11:39:53;93198.38;;;47.04;21.24
1926;BME280;964;42.606;23.588;2022-09-27T11:42:44;93199.28;;;45.80;22.87
1926;BME280;964;42.606;23.588;2022-09-27T11:45:33;93198.63;;;46.69;22.27
1926;BME280;964;42.606;23.588;2022-09-27T11:48:11;93200.34;;;44.92;24.12
1926;BME280;964;42.606;23.588;2022-09-27T11:50:56;93197.38;;;44.11;22.73
1926;BME280;964;42.606;23.588;2022-09-27T11:53:38;93205.72;;;42.64;24.38
1926;BME280;964;42.606;23.588;2022-09-27T11:56:17;93211.97;;;41.57;24.73
1926;BME280;964;42.606;23.588;2022-09-27T11:58:57;93201.31;;;41.17;25.51
1926;BME280;964;42.606;23.588;2022-09-27T12:01:38;93192.84;;;41.05;24.61
1926;BME280;964;42.606;23.588;2022-09-27T12:07:11;93204.94;;;39.76;26.40
1926;BME280;964;42.606;23.588;2022-09-27T12:09:44;93190.47;;;39.43;26.99
1926;BME280;964;42.606;23.588;2022-09-27T12:12:17;93188.63;;;39.80;26.26
1926;BME280;964;42.606;23.588;2022-09-27T12:14:47;93192.03;;;39.37;26.50
1926;BME280;964;42.606;23.588;2022-09-27T12:17:18;93186.28;;;39.17;27.10
1926;BME280;964;42.606;23.588;2022-09-27T12:19:48;93201.94;;;37.68;28.36
1926;BME280;964;42.606;23.588;2022-09-27T12:22:20;93188.50;;;38.12;27.17
1926;BME280;964;42.606;23.588;2022-09-27T12:24:47;93190.75;;;38.06;27.90
1926;BME280;964;42.606;23.588;2022-09-27T12:27:19;93187.41;;;38.08;28.15
1926;BME280;964;42.606;23.588;2022-09-27T12:29:47;93177.84;;;38.01;27.98
1926;BME280;964;42.606;23.588;2022-09-27T12:32:17;93185.56;;;37.63;28.00
1926;BME280;964;42.606;23.588;2022-09-27T12:34:55;93180.28;;;37.90;27.79
1926;BME280;964;42.606;23.588;2022-09-27T12:37:26;93171.00;;;37.62;28.87
1926;BME280;964;42.606;23.588;2022-09-27T12:39:57;93159.56;;;38.88;26.91
1926;BME280;964;42.606;23.588;2022-09-27T12:42:30;93165.28;;;38.65;27.86
1926;BME280;964;42.606;23.588;2022-09-27T12:44:58;93157.28;;;39.36;27.12
1926;BME280;964;42.606;23.588;2022-09-27T12:47:38;93151.00;;;39.69;26.39
1926;BME280;964;42.606;23.588;2022-09-27T12:50:14;93148.63;;;39.14;28.23
1926;BME280;964;42.606;23.588;2022-09-27T12:52:49;93150.00;;;38.81;27.24
1926;BME280;964;42.606;23.588;2022-09-27T12:55:38;93139.34;;;39.54;26.49
1926;BME280;964;42.606;23.588;2022-09-27T12:58:26;93132.63;;;39.91;27.36
1926;BME280;964;42.606;23.588;2022-09-27T13:01:01;93137.59;;;38.65;27.24
1926;BME280;964;42.606;23.588;2022-09-27T13:03:42;93132.59;;;38.88;26.93
1926;BME280;964;42.606;23.588;2022-09-27T13:06:32;93132.00;;;38.72;26.64
1926;BME280;964;42.606;23.588;2022-09-27T13:09:27;93143.66;;;36.51;28.36
1926;BME280;964;42.606;23.588;2022-09-27T13:12:01;93137.59;;;36.75;28.16
1926;BME280;964;42.606;23.588;2022-09-27T13:14:40;93156.72;;;37.11;29.40
1926;BME280;964;42.606;23.588;2022-09-27T13:17:30;93146.69;;;37.38;28.40
1926;BME280;964;42.606;23.588;2022-09-27T13:19:57;93144.50;;;38.24;27.76
1926;BME280;964;42.606;23.588;2022-09-27T13:22:36;93146.03;;;37.22;28.63
1926;BME280;964;42.606;23.588;2022-09-27T13:28:31;93141.56;;;37.34;28.61
1926;BME280;964;42.606;23.588;2022-09-27T13:30:58;93151.97;;;36.73;29.61
1926;BME280;964;42.606;23.588;2022-09-27T13:33:41;93140.69;;;37.09;28.37
1926;BME280;964;42.606;23.588;2022-09-27T13:36:29;93148.06;;;36.38;28.46
1926;BME280;964;42.606;23.588;2022-09-27T13:39:02;93124.78;;;37.95;26.98
1926;BME280;964;42.606;23.588;2022-09-27T13:41:39;93127.13;;;41.00;24.67
1926;BME280;964;42.606;23.588;2022-09-27T13:44:22;93116.25;;;42.60;23.03
1926;BME280;964;42.606;23.588;2022-09-27T13:46:54;93109.47;;;41.82;23.77
1926;BME280;964;42.606;23.588;2022-09-27T13:49:26;93111.81;;;43.82;22.06
1926;BME280;964;42.606;23.588;2022-09-27T13:51:59;93109.13;;;43.52;22.20
1926;BME280;964;42.606;23.588;2022-09-27T13:54:36;93126.16;;;42.42;22.43
1926;BME280;964;42.606;23.588;2022-09-27T13:57:05;93114.34;;;43.36;22.64
1926;BME280;964;42.606;23.588;2022-09-27T13:59:54;93129.72;;;42.23;23.99
1926;BME280;964;42.606;23.588;2022-09-27T14:02:24;93130.53;;;41.47;23.54
1926;BME280;964;42.606;23.588;2022-09-27T14:04:55;93138.63;;;40.14;24.86
1926;BME280;964;42.606;23.588;2022-09-27T14:07:32;93145.78;;;37.36;28.05
1926;BME280;964;42.606;23.588;2022-09-27T14:10:02;93143.81;;;36.98;28.05